createdAt,value
2017-01-22T00:00:01.102Z,834.78
2017-01-22T00:00:31.126Z,834.71
2017-01-22T00:01:01.155Z,834.65
2017-01-22T00:01:31.177Z,834.58
2017-01-22T00:02:01.207Z,834.52
2017-01-22T00:02:31.232Z,834.47
2017-01-22T00:03:01.461Z,834.47
2017-01-22T00:03:31.286Z,834.43
2017-01-22T00:04:01.324Z,834.41
2017-01-22T00:04:31.340Z,834.43
2017-01-22T00:05:01.364Z,834.42
2017-01-22T00:05:31.392Z,834.38
2017-01-22T00:06:01.772Z,834.35
2017-01-22T00:06:31.444Z,834.36
2017-01-22T00:07:01.474Z,834.37
2017-01-22T00:07:31.500Z,834.29
2017-01-22T00:08:01.776Z,834.29
2017-01-22T00:08:31.552Z,834.25
2017-01-22T00:09:01.880Z,834.29
2017-01-22T00:09:31.610Z,834.26
2017-01-22T00:10:01.636Z,834.26
2017-01-22T00:10:31.663Z,834.23
2017-01-22T00:11:01.888Z,834.23
2017-01-22T00:11:31.718Z,834.2
2017-01-22T00:12:01.742Z,834.21
2017-01-22T00:12:31.777Z,834.18
2017-01-22T00:13:01.797Z,834.17
2017-01-22T00:13:31.820Z,834.11
2017-01-22T00:14:01.850Z,834.08
2017-01-22T00:14:31.876Z,834.05
2017-01-22T00:15:01.910Z,833.99
2017-01-22T00:15:31.929Z,833.95
2017-01-22T00:16:02.257Z,833.91
2017-01-22T00:16:31.987Z,833.86
2017-01-22T00:17:02.211Z,833.82
2017-01-22T00:17:32.036Z,833.76
2017-01-22T00:18:02.215Z,833.78
2017-01-22T00:18:32.090Z,833.69
2017-01-22T00:19:02.169Z,833.66
2017-01-22T00:19:32.143Z,833.63
2017-01-22T00:20:02.169Z,833.61
2017-01-22T00:20:32.198Z,833.58
2017-01-22T00:21:02.224Z,833.56
2017-01-22T00:21:32.249Z,833.48
2017-01-22T00:22:02.326Z,833.48
2017-01-22T00:22:32.303Z,833.43
2017-01-22T00:23:02.580Z,833.37
2017-01-22T00:23:32.360Z,833.36
2017-01-22T00:24:02.385Z,833.37
2017-01-22T00:24:32.410Z,833.34
2017-01-22T00:25:02.587Z,833.35
2017-01-22T00:25:32.467Z,833.34
2017-01-22T00:26:02.542Z,833.33
2017-01-22T00:26:32.518Z,833.37
2017-01-22T00:27:02.555Z,833.35
2017-01-22T00:27:32.574Z,833.4
2017-01-22T00:28:02.600Z,833.36
2017-01-22T00:28:32.624Z,833.37
2017-01-22T00:29:02.650Z,833.38
2017-01-22T00:29:32.677Z,833.35
2017-01-22T00:30:02.705Z,833.35
2017-01-22T00:30:32.729Z,833.38
2017-01-22T00:31:02.758Z,833.35
2017-01-22T00:31:32.785Z,833.37
2017-01-22T00:32:02.811Z,833.36
2017-01-22T00:32:32.839Z,833.35
2017-01-22T00:33:02.863Z,833.36
2017-01-22T00:33:32.890Z,833.35
2017-01-22T00:34:02.918Z,833.32
2017-01-22T00:34:32.945Z,833.31
2017-01-22T00:35:02.973Z,833.31
2017-01-22T00:35:32.998Z,833.26
2017-01-22T00:36:03.029Z,833.24
2017-01-22T00:36:33.058Z,833.22
2017-01-22T00:37:03.079Z,833.17
2017-01-22T00:37:33.104Z,833.14
2017-01-22T00:38:03.131Z,833.16
2017-01-22T00:38:33.159Z,833.11
2017-01-22T00:39:03.185Z,833.09
2017-01-22T00:39:33.214Z,833.07
2017-01-22T00:40:03.241Z,833.02
2017-01-22T00:40:33.265Z,833.01
2017-01-22T00:41:03.289Z,833.01
2017-01-22T00:41:33.317Z,832.96
2017-01-22T00:42:03.345Z,832.97
2017-01-22T00:42:33.371Z,833.03
2017-01-22T00:43:03.399Z,832.99
2017-01-22T00:43:33.424Z,833.02
2017-01-22T00:44:03.450Z,833.04
2017-01-22T00:44:33.479Z,832.98
2017-01-22T00:45:03.504Z,833
2017-01-22T00:45:33.533Z,833.06
2017-01-22T00:46:03.558Z,833.04
2017-01-22T00:46:33.587Z,833
2017-01-22T00:47:03.611Z,833
2017-01-22T00:47:33.638Z,833.05
2017-01-22T00:48:03.663Z,833.03
2017-01-22T00:48:33.692Z,833.05
2017-01-22T00:49:03.718Z,833.08
2017-01-22T00:49:33.746Z,833.08
2017-01-22T00:50:03.773Z,833.03
2017-01-22T00:50:33.798Z,833.04
2017-01-22T00:51:03.825Z,833
2017-01-22T00:51:33.852Z,833.04
2017-01-22T00:52:03.881Z,833.05
2017-01-22T00:52:33.905Z,833.07
2017-01-22T00:53:03.932Z,833.07
2017-01-22T00:53:33.962Z,833.09
2017-01-22T00:54:03.987Z,833.11
2017-01-22T00:54:34.015Z,833.12
2017-01-22T00:55:04.040Z,833.11
2017-01-22T00:55:34.067Z,833.11
2017-01-22T00:56:04.093Z,833.13
2017-01-22T00:56:34.117Z,833.09
2017-01-22T00:57:04.143Z,833.1
2017-01-22T00:57:34.175Z,833.12
2017-01-22T00:58:04.201Z,833.05
2017-01-22T00:58:34.226Z,833.06
2017-01-22T00:59:04.261Z,833.06
2017-01-22T00:59:34.281Z,833.01
2017-01-22T01:00:04.308Z,833.03
2017-01-22T01:00:34.332Z,832.97
2017-01-22T01:01:04.361Z,832.94
2017-01-22T01:01:34.389Z,832.92
2017-01-22T01:02:04.413Z,832.86
2017-01-22T01:02:34.440Z,832.87
2017-01-22T01:03:04.466Z,832.82
2017-01-22T01:03:34.496Z,832.82
2017-01-22T01:04:04.524Z,832.73
2017-01-22T01:04:34.546Z,832.72
2017-01-22T01:05:04.576Z,832.64
2017-01-22T01:05:34.600Z,832.62
2017-01-22T01:06:04.626Z,832.56
2017-01-22T01:06:34.657Z,832.48
2017-01-22T01:07:04.680Z,832.35
2017-01-22T01:07:34.706Z,832.25
2017-01-22T01:08:04.735Z,832.11
2017-01-22T01:08:34.759Z,831.96
2017-01-22T01:09:04.786Z,831.83
2017-01-22T01:09:34.815Z,831.72
2017-01-22T01:10:04.841Z,831.64
2017-01-22T01:10:34.866Z,831.6
2017-01-22T01:11:04.894Z,831.52
2017-01-22T01:11:34.920Z,831.48
2017-01-22T01:12:04.945Z,831.42
2017-01-22T01:12:34.972Z,831.38
2017-01-22T01:13:04.999Z,831.32
2017-01-22T01:13:35.025Z,831.31
2017-01-22T01:14:05.052Z,831.28
2017-01-22T01:14:35.079Z,831.25
2017-01-22T01:15:05.103Z,831.29
2017-01-22T01:15:35.133Z,831.3
2017-01-22T01:16:05.158Z,831.33
2017-01-22T01:16:35.186Z,831.32
2017-01-22T01:17:05.212Z,831.37
2017-01-22T01:17:35.238Z,831.38
2017-01-22T01:18:05.266Z,831.38
2017-01-22T01:18:35.289Z,831.43
2017-01-22T01:19:05.317Z,831.46
2017-01-22T01:19:35.343Z,831.45
2017-01-22T01:20:05.368Z,831.49
2017-01-22T01:20:35.398Z,831.47
2017-01-22T01:21:05.424Z,831.49
2017-01-22T01:21:35.451Z,831.49
2017-01-22T01:22:05.477Z,831.52
2017-01-22T01:22:35.505Z,831.51
2017-01-22T01:23:05.527Z,831.49
2017-01-22T01:23:35.557Z,831.49
2017-01-22T01:24:05.586Z,831.56
2017-01-22T01:24:35.610Z,831.61
2017-01-22T01:25:05.635Z,831.57
2017-01-22T01:25:35.663Z,831.58
2017-01-22T01:26:05.688Z,831.59
2017-01-22T01:26:35.716Z,831.62
2017-01-22T01:27:05.743Z,831.63
2017-01-22T01:27:35.770Z,831.66
2017-01-22T01:28:05.798Z,831.64
2017-01-22T01:28:35.826Z,831.65
2017-01-22T01:29:05.851Z,831.63
2017-01-22T01:29:35.878Z,831.64
2017-01-22T01:30:05.907Z,831.62
2017-01-22T01:30:35.929Z,831.6
2017-01-22T01:31:05.956Z,831.64
2017-01-22T01:31:35.984Z,831.59
2017-01-22T01:32:06.008Z,831.63
2017-01-22T01:32:36.034Z,831.64
2017-01-22T01:33:06.062Z,831.58
2017-01-22T01:33:36.088Z,831.58
2017-01-22T01:34:06.116Z,831.55
2017-01-22T01:34:36.142Z,831.57
2017-01-22T01:35:06.167Z,831.55
2017-01-22T01:35:36.193Z,831.54
2017-01-22T01:36:06.219Z,831.55
2017-01-22T01:36:36.246Z,831.57
2017-01-22T01:37:06.274Z,831.58
2017-01-22T01:37:36.299Z,831.56
2017-01-22T01:38:06.327Z,831.65
2017-01-22T01:38:36.355Z,831.62
2017-01-22T01:39:06.381Z,831.7
2017-01-22T01:39:36.406Z,831.73
2017-01-22T01:40:06.434Z,831.77
2017-01-22T01:40:36.462Z,831.77
2017-01-22T01:41:06.488Z,831.81
2017-01-22T01:41:36.513Z,831.82
2017-01-22T01:42:06.538Z,831.85
2017-01-22T01:42:36.567Z,831.92
2017-01-22T01:43:06.591Z,831.93
2017-01-22T01:43:36.618Z,831.91
2017-01-22T01:44:06.646Z,831.96
2017-01-22T01:44:36.674Z,831.95
2017-01-22T01:45:06.700Z,831.98
2017-01-22T01:45:36.727Z,832.02
2017-01-22T01:46:06.754Z,832.01
2017-01-22T01:46:36.779Z,832.09
2017-01-22T01:47:06.806Z,832.07
2017-01-22T01:47:36.837Z,832.08
2017-01-22T01:48:06.860Z,832.08
2017-01-22T01:48:36.886Z,832.07
2017-01-22T01:49:06.913Z,832.07
2017-01-22T01:49:36.940Z,831.99
2017-01-22T01:50:06.967Z,831.98
2017-01-22T01:50:36.992Z,831.94
2017-01-22T01:51:07.019Z,831.94
2017-01-22T01:51:37.047Z,831.97
2017-01-22T01:52:07.072Z,831.97
2017-01-22T01:52:37.098Z,831.97
2017-01-22T01:53:07.128Z,831.95
2017-01-22T01:53:37.151Z,831.92
2017-01-22T01:54:07.178Z,832
2017-01-22T01:54:37.208Z,831.94
2017-01-22T01:55:07.232Z,831.89
2017-01-22T01:55:37.256Z,831.88
2017-01-22T01:56:07.285Z,831.8
2017-01-22T01:56:37.312Z,831.8
2017-01-22T01:57:07.338Z,831.8
2017-01-22T01:57:37.363Z,831.78
2017-01-22T01:58:07.391Z,831.74
2017-01-22T01:58:37.418Z,831.76
2017-01-22T01:59:07.444Z,831.72
2017-01-22T01:59:37.475Z,831.7
2017-01-22T02:00:07.497Z,831.71
2017-01-22T02:00:37.522Z,831.62
2017-01-22T02:01:07.555Z,831.71
2017-01-22T02:01:37.579Z,831.66
2017-01-22T02:02:07.605Z,831.7
2017-01-22T02:02:37.630Z,831.71
2017-01-22T02:03:07.658Z,831.77
2017-01-22T02:03:37.684Z,831.77
2017-01-22T02:04:07.711Z,831.8
2017-01-22T02:04:37.750Z,831.83
2017-01-22T02:05:07.764Z,831.86
2017-01-22T02:05:37.789Z,831.84
2017-01-22T02:06:07.817Z,831.9
2017-01-22T02:06:37.844Z,831.9
2017-01-22T02:07:07.869Z,831.92
2017-01-22T02:07:37.898Z,831.92
2017-01-22T02:08:07.923Z,831.93
2017-01-22T02:08:37.959Z,831.96
2017-01-22T02:09:07.978Z,831.95
2017-01-22T02:09:38.002Z,832.03
2017-01-22T02:10:08.030Z,832.02
2017-01-22T02:10:38.056Z,832.06
2017-01-22T02:11:08.086Z,832.03
2017-01-22T02:11:38.112Z,832.08
2017-01-22T02:12:08.136Z,832.11
2017-01-22T02:12:38.160Z,832.13
2017-01-22T02:13:08.188Z,832.13
2017-01-22T02:13:38.216Z,832.15
2017-01-22T02:14:08.243Z,832.18
2017-01-22T02:14:38.269Z,832.24
2017-01-22T02:15:08.298Z,832.26
2017-01-22T02:15:38.324Z,832.27
2017-01-22T02:16:08.350Z,832.33
2017-01-22T02:16:38.377Z,832.38
2017-01-22T02:17:08.404Z,832.4
2017-01-22T02:17:38.431Z,832.46
2017-01-22T02:18:08.458Z,832.46
2017-01-22T02:18:38.486Z,832.49
2017-01-22T02:19:08.508Z,832.55
2017-01-22T02:19:38.536Z,832.62
2017-01-22T02:20:08.563Z,832.66
2017-01-22T02:20:38.589Z,832.72
2017-01-22T02:21:08.615Z,832.74
2017-01-22T02:21:38.643Z,832.77
2017-01-22T02:22:08.666Z,832.82
2017-01-22T02:22:38.700Z,832.9
2017-01-22T02:23:08.721Z,832.95
2017-01-22T02:23:38.746Z,833
2017-01-22T02:24:08.776Z,833.01
2017-01-22T02:24:38.802Z,833.05
2017-01-22T02:25:08.830Z,833.07
2017-01-22T02:25:38.852Z,833.06
2017-01-22T02:26:08.888Z,833.1
2017-01-22T02:26:38.915Z,833.14
2017-01-22T02:27:08.935Z,833.2
2017-01-22T02:27:38.971Z,833.2
2017-01-22T02:28:08.988Z,833.24
2017-01-22T02:28:39.016Z,833.29
2017-01-22T02:29:09.040Z,833.34
2017-01-22T02:29:39.070Z,833.39
2017-01-22T02:30:09.095Z,833.37
2017-01-22T02:30:39.123Z,833.44
2017-01-22T02:31:09.148Z,833.44
2017-01-22T02:31:39.176Z,833.53
2017-01-22T02:32:09.202Z,833.5
2017-01-22T02:32:39.228Z,833.51
2017-01-22T02:33:09.256Z,833.56
2017-01-22T02:33:39.283Z,833.57
2017-01-22T02:34:09.311Z,833.59
2017-01-22T02:34:39.338Z,833.66
2017-01-22T02:35:09.363Z,833.63
2017-01-22T02:35:39.390Z,833.61
2017-01-22T02:36:09.415Z,833.66
2017-01-22T02:36:39.446Z,833.67
2017-01-22T02:37:09.473Z,833.71
2017-01-22T02:37:39.495Z,833.71
2017-01-22T02:38:09.527Z,833.75
2017-01-22T02:38:39.555Z,833.71
2017-01-22T02:39:09.577Z,833.78
2017-01-22T02:39:39.607Z,833.72
2017-01-22T02:40:09.629Z,833.8
2017-01-22T02:40:39.656Z,833.75
2017-01-22T02:41:09.684Z,833.78
2017-01-22T02:41:39.711Z,833.8
2017-01-22T02:42:09.738Z,833.87
2017-01-22T02:42:39.765Z,833.88
2017-01-22T02:43:09.796Z,833.92
2017-01-22T02:43:39.819Z,833.91
2017-01-22T02:44:09.846Z,833.87
2017-01-22T02:44:39.874Z,833.93
2017-01-22T02:45:09.899Z,833.89
2017-01-22T02:45:39.927Z,833.91
2017-01-22T02:46:09.951Z,833.9
2017-01-22T02:46:39.976Z,833.9
2017-01-22T02:47:10.008Z,833.89
2017-01-22T02:47:40.033Z,833.88
2017-01-22T02:48:10.056Z,833.92
2017-01-22T02:48:40.086Z,833.92
2017-01-22T02:49:10.111Z,833.9
2017-01-22T02:49:40.139Z,833.85
2017-01-22T02:50:10.166Z,833.87
2017-01-22T02:50:40.194Z,833.86
2017-01-22T02:51:10.227Z,833.93
2017-01-22T02:51:40.247Z,833.94
2017-01-22T02:52:10.273Z,833.95
2017-01-22T02:52:40.300Z,833.95
2017-01-22T02:53:10.326Z,833.92
2017-01-22T02:53:40.353Z,833.91
2017-01-22T02:54:10.380Z,833.92
2017-01-22T02:54:40.406Z,833.94
2017-01-22T02:55:10.435Z,833.96
2017-01-22T02:55:40.461Z,833.9
2017-01-22T02:56:10.492Z,833.9
2017-01-22T02:56:40.521Z,833.9
2017-01-22T02:57:10.539Z,833.88
2017-01-22T02:57:40.569Z,833.87
2017-01-22T02:58:10.596Z,833.84
2017-01-22T02:58:40.621Z,833.84
2017-01-22T02:59:10.657Z,833.84
2017-01-22T02:59:40.675Z,833.82
2017-01-22T03:00:10.703Z,833.84
2017-01-22T03:00:40.729Z,833.82
2017-01-22T03:01:10.756Z,833.83
2017-01-22T03:01:40.782Z,833.85
2017-01-22T03:02:10.809Z,833.89
2017-01-22T03:02:40.836Z,833.9
2017-01-22T03:03:10.862Z,833.91
2017-01-22T03:03:40.889Z,833.9
2017-01-22T03:04:10.924Z,833.88
2017-01-22T03:04:40.943Z,833.9
2017-01-22T03:05:10.969Z,833.84
2017-01-22T03:05:40.998Z,833.86
2017-01-22T03:06:11.023Z,833.85
2017-01-22T03:06:41.050Z,833.89
2017-01-22T03:07:11.078Z,833.84
2017-01-22T03:07:41.105Z,833.81
2017-01-22T03:08:11.129Z,833.78
2017-01-22T03:08:41.156Z,833.76
2017-01-22T03:09:11.187Z,833.71
2017-01-22T03:09:41.211Z,833.69
2017-01-22T03:10:11.240Z,833.63
2017-01-22T03:10:41.264Z,833.62
2017-01-22T03:11:11.290Z,833.6
2017-01-22T03:11:41.319Z,833.61
2017-01-22T03:12:11.345Z,833.59
2017-01-22T03:12:41.372Z,833.57
2017-01-22T03:13:11.396Z,833.58
2017-01-22T03:13:41.423Z,833.53
2017-01-22T03:14:11.454Z,833.52
2017-01-22T03:14:41.476Z,833.54
2017-01-22T03:15:11.505Z,833.51
2017-01-22T03:15:41.533Z,833.48
2017-01-22T03:16:11.558Z,833.5
2017-01-22T03:16:41.585Z,833.48
2017-01-22T03:17:11.612Z,833.48
2017-01-22T03:17:41.639Z,833.49
2017-01-22T03:18:11.672Z,833.5
2017-01-22T03:18:41.691Z,833.42
2017-01-22T03:19:11.720Z,833.44
2017-01-22T03:19:41.746Z,833.48
2017-01-22T03:20:11.772Z,833.48
2017-01-22T03:20:41.801Z,833.53
2017-01-22T03:21:11.827Z,833.5
2017-01-22T03:21:41.852Z,833.47
2017-01-22T03:22:11.879Z,833.49
2017-01-22T03:22:41.908Z,833.46
2017-01-22T03:23:11.932Z,833.41
2017-01-22T03:23:41.965Z,833.43
2017-01-22T03:24:11.984Z,833.37
2017-01-22T03:24:42.014Z,833.32
2017-01-22T03:25:12.040Z,833.28
2017-01-22T03:25:42.068Z,833.25
2017-01-22T03:26:12.094Z,833.21
2017-01-22T03:26:42.121Z,833.2
2017-01-22T03:27:12.149Z,833.11
2017-01-22T03:27:42.174Z,833.11
2017-01-22T03:28:12.201Z,833.13
2017-01-22T03:28:42.225Z,833.08
2017-01-22T03:29:12.255Z,833.09
2017-01-22T03:29:42.279Z,833.06
2017-01-22T03:30:12.312Z,833.07
2017-01-22T03:30:42.335Z,833.02
2017-01-22T03:31:12.361Z,833.02
2017-01-22T03:31:42.386Z,833.04
2017-01-22T03:32:12.415Z,833.01
2017-01-22T03:32:42.439Z,833.01
2017-01-22T03:33:12.464Z,833.02
2017-01-22T03:33:42.491Z,833.02
2017-01-22T03:34:12.516Z,832.97
2017-01-22T03:34:42.548Z,832.97
2017-01-22T03:35:12.571Z,832.94
2017-01-22T03:35:42.599Z,832.93
2017-01-22T03:36:12.624Z,832.87
2017-01-22T03:36:42.654Z,832.89
2017-01-22T03:37:12.679Z,832.83
2017-01-22T03:37:42.709Z,832.71
2017-01-22T03:38:12.732Z,832.68
2017-01-22T03:38:42.758Z,832.69
2017-01-22T03:39:12.786Z,832.6
2017-01-22T03:39:42.812Z,832.58
2017-01-22T03:40:12.841Z,832.49
2017-01-22T03:40:42.865Z,832.51
2017-01-22T03:41:12.891Z,832.46
2017-01-22T03:41:42.916Z,832.44
2017-01-22T03:42:12.947Z,832.35
2017-01-22T03:42:42.973Z,832.32
2017-01-22T03:43:12.997Z,832.31
2017-01-22T03:43:43.026Z,832.27
2017-01-22T03:44:13.052Z,832.23
2017-01-22T03:44:43.079Z,832.21
2017-01-22T03:45:13.106Z,832.19
2017-01-22T03:45:43.133Z,832.18
2017-01-22T03:46:13.160Z,832.19
2017-01-22T03:46:43.184Z,832.19
2017-01-22T03:47:13.213Z,832.18
2017-01-22T03:47:43.237Z,832.15
2017-01-22T03:48:13.266Z,832.06
2017-01-22T03:48:43.290Z,832.03
2017-01-22T03:49:13.318Z,831.98
2017-01-22T03:49:43.343Z,831.95
2017-01-22T03:50:13.368Z,831.94
2017-01-22T03:50:43.397Z,831.83
2017-01-22T03:51:13.425Z,831.81
2017-01-22T03:51:43.449Z,831.76
2017-01-22T03:52:13.478Z,831.74
2017-01-22T03:52:43.506Z,831.67
2017-01-22T03:53:13.530Z,831.55
2017-01-22T03:53:43.558Z,831.58
2017-01-22T03:54:13.590Z,831.58
2017-01-22T03:54:43.610Z,831.53
2017-01-22T03:55:13.638Z,831.51
2017-01-22T03:55:43.663Z,831.5
2017-01-22T03:56:13.689Z,831.53
2017-01-22T03:56:43.715Z,831.5
2017-01-22T03:57:13.766Z,831.52
2017-01-22T03:57:43.768Z,831.55
2017-01-22T03:58:13.795Z,831.51
2017-01-22T03:58:43.823Z,831.5
2017-01-22T03:59:13.850Z,831.49
2017-01-22T03:59:43.874Z,831.54
2017-01-22T04:00:13.900Z,831.51
2017-01-22T04:00:43.926Z,831.51
2017-01-22T04:01:13.955Z,831.51
2017-01-22T04:01:43.980Z,831.53
2017-01-22T04:02:14.008Z,831.54
2017-01-22T04:02:44.036Z,831.47
2017-01-22T04:03:14.061Z,831.45
2017-01-22T04:03:44.088Z,831.5
2017-01-22T04:04:14.115Z,831.55
2017-01-22T04:04:44.143Z,831.51
2017-01-22T04:05:14.167Z,831.55
2017-01-22T04:05:44.197Z,831.56
2017-01-22T04:06:14.222Z,831.53
2017-01-22T04:06:44.247Z,831.55
2017-01-22T04:07:14.276Z,831.51
2017-01-22T04:07:44.300Z,831.48
2017-01-22T04:08:14.327Z,831.56
2017-01-22T04:08:44.356Z,831.56
2017-01-22T04:09:14.381Z,831.55
2017-01-22T04:09:44.408Z,831.53
2017-01-22T04:10:14.433Z,831.51
2017-01-22T04:10:44.458Z,831.55
2017-01-22T04:11:14.785Z,831.55
2017-01-22T04:11:44.513Z,831.49
2017-01-22T04:12:14.541Z,831.47
2017-01-22T04:12:44.569Z,831.46
2017-01-22T04:13:14.595Z,831.5
2017-01-22T04:13:44.621Z,831.5
2017-01-22T04:14:14.645Z,831.54
2017-01-22T04:14:44.678Z,831.54
2017-01-22T04:15:14.701Z,831.55
2017-01-22T04:15:44.726Z,831.58
2017-01-22T04:16:14.752Z,831.59
2017-01-22T04:16:44.776Z,831.6
2017-01-22T04:17:14.803Z,831.61
2017-01-22T04:17:44.833Z,831.64
2017-01-22T04:18:14.859Z,831.71
2017-01-22T04:18:44.886Z,831.66
2017-01-22T04:19:14.912Z,831.7
2017-01-22T04:19:44.938Z,831.7
2017-01-22T04:20:14.965Z,831.73
2017-01-22T04:20:44.991Z,831.73
2017-01-22T04:21:15.018Z,831.72
2017-01-22T04:21:45.044Z,831.79
2017-01-22T04:22:15.070Z,831.78
2017-01-22T04:22:45.100Z,831.82
2017-01-22T04:23:15.125Z,831.86
2017-01-22T04:23:45.152Z,831.94
2017-01-22T04:24:15.177Z,831.98
2017-01-22T04:24:45.205Z,832.01
2017-01-22T04:25:15.229Z,832.01
2017-01-22T04:25:45.258Z,832.1
2017-01-22T04:26:15.294Z,832.09
2017-01-22T04:26:45.312Z,832.18
2017-01-22T04:27:15.342Z,832.2
2017-01-22T04:27:45.366Z,832.26
2017-01-22T04:28:15.393Z,832.24
2017-01-22T04:28:45.417Z,832.23
2017-01-22T04:29:15.443Z,832.22
2017-01-22T04:29:45.472Z,832.24
2017-01-22T04:30:15.497Z,832.23
2017-01-22T04:30:45.526Z,832.27
2017-01-22T04:31:15.552Z,832.26
2017-01-22T04:31:45.577Z,832.23
2017-01-22T04:32:15.606Z,832.27
2017-01-22T04:32:45.633Z,832.31
2017-01-22T04:33:15.659Z,832.28
2017-01-22T04:33:45.687Z,832.31
2017-01-22T04:34:15.713Z,832.35
2017-01-22T04:34:45.738Z,832.37
2017-01-22T04:35:15.766Z,832.36
2017-01-22T04:35:45.792Z,832.38
2017-01-22T04:36:15.820Z,832.42
2017-01-22T04:36:45.847Z,832.35
2017-01-22T04:37:15.869Z,832.39
2017-01-22T04:37:45.906Z,832.41
2017-01-22T04:38:15.932Z,832.44
2017-01-22T04:38:45.951Z,832.51
2017-01-22T04:39:15.978Z,832.5
2017-01-22T04:39:46.007Z,832.55
2017-01-22T04:40:16.032Z,832.61
2017-01-22T04:40:46.060Z,832.66
2017-01-22T04:41:16.085Z,832.73
2017-01-22T04:41:46.112Z,832.81
2017-01-22T04:42:16.138Z,832.85
2017-01-22T04:42:46.168Z,832.97
2017-01-22T04:43:16.191Z,832.94
2017-01-22T04:43:46.219Z,833.02
2017-01-22T04:44:16.246Z,833.04
2017-01-22T04:44:46.276Z,833.06
2017-01-22T04:45:16.300Z,833.16
2017-01-22T04:45:46.326Z,833.17
2017-01-22T04:46:16.353Z,833.25
2017-01-22T04:46:46.380Z,833.2
2017-01-22T04:47:16.408Z,833.27
2017-01-22T04:47:46.432Z,833.3
2017-01-22T04:48:16.460Z,833.29
2017-01-22T04:48:46.486Z,833.28
2017-01-22T04:49:16.514Z,833.3
2017-01-22T04:49:46.540Z,833.29
2017-01-22T04:50:16.567Z,833.32
2017-01-22T04:50:46.591Z,833.32
2017-01-22T04:51:16.619Z,833.32
2017-01-22T04:51:46.646Z,833.34
2017-01-22T04:52:16.676Z,833.32
2017-01-22T04:52:46.700Z,833.36
2017-01-22T04:53:16.727Z,833.36
2017-01-22T04:53:46.756Z,833.31
2017-01-22T04:54:16.783Z,833.31
2017-01-22T04:54:46.810Z,833.29
2017-01-22T04:55:16.836Z,833.36
2017-01-22T04:55:46.860Z,833.36
2017-01-22T04:56:16.889Z,833.38
2017-01-22T04:56:46.915Z,833.39
2017-01-22T04:57:16.943Z,833.44
2017-01-22T04:57:46.973Z,833.4
2017-01-22T04:58:16.998Z,833.39
2017-01-22T04:58:47.025Z,833.38
2017-01-22T04:59:17.050Z,833.47
2017-01-22T04:59:47.076Z,833.44
2017-01-22T05:00:17.101Z,833.42
2017-01-22T05:00:47.130Z,833.42
2017-01-22T05:01:17.156Z,833.45
2017-01-22T05:01:47.187Z,833.45
2017-01-22T05:02:17.212Z,833.43
2017-01-22T05:02:47.238Z,833.43
2017-01-22T05:03:17.264Z,833.44
2017-01-22T05:03:47.291Z,833.44
2017-01-22T05:04:17.317Z,833.42
2017-01-22T05:04:47.343Z,833.39
2017-01-22T05:05:17.369Z,833.38
2017-01-22T05:05:47.407Z,833.45
2017-01-22T05:06:17.427Z,833.48
2017-01-22T05:06:47.449Z,833.52
2017-01-22T05:07:17.476Z,833.5
2017-01-22T05:07:47.558Z,833.47
2017-01-22T05:08:17.532Z,833.5
2017-01-22T05:08:47.558Z,833.41
2017-01-22T05:09:17.584Z,833.41
2017-01-22T05:09:47.612Z,833.35
2017-01-22T05:10:17.635Z,833.41
2017-01-22T05:10:47.665Z,833.4
2017-01-22T05:11:17.690Z,833.43
2017-01-22T05:11:47.716Z,833.47
2017-01-22T05:12:17.748Z,833.52
2017-01-22T05:12:47.771Z,833.49
2017-01-22T05:13:17.799Z,833.53
2017-01-22T05:13:47.824Z,833.6
2017-01-22T05:14:17.851Z,833.66
2017-01-22T05:14:47.877Z,833.73
2017-01-22T05:15:17.904Z,833.77
2017-01-22T05:15:47.932Z,833.78
2017-01-22T05:16:17.956Z,833.75
2017-01-22T05:16:47.984Z,833.77
2017-01-22T05:17:18.012Z,833.75
2017-01-22T05:17:48.040Z,833.75
2017-01-22T05:18:18.066Z,833.73
2017-01-22T05:18:48.096Z,833.73
2017-01-22T05:19:18.120Z,833.74
2017-01-22T05:19:48.147Z,833.83
2017-01-22T05:20:18.174Z,833.81
2017-01-22T05:20:48.202Z,833.84
2017-01-22T05:21:18.225Z,833.84
2017-01-22T05:21:48.254Z,833.82
2017-01-22T05:22:18.281Z,833.8
2017-01-22T05:22:48.305Z,833.8
2017-01-22T05:23:18.334Z,833.79
2017-01-22T05:23:48.363Z,833.73
2017-01-22T05:24:18.389Z,833.68
2017-01-22T05:24:48.414Z,833.69
2017-01-22T05:25:18.438Z,833.67
2017-01-22T05:25:48.467Z,833.62
2017-01-22T05:26:18.500Z,833.63
2017-01-22T05:26:48.522Z,833.6
2017-01-22T05:27:18.547Z,833.51
2017-01-22T05:27:48.574Z,833.47
2017-01-22T05:28:18.604Z,833.46
2017-01-22T05:28:48.630Z,833.45
2017-01-22T05:29:18.656Z,833.43
2017-01-22T05:29:48.684Z,833.41
2017-01-22T05:30:18.705Z,833.34
2017-01-22T05:30:48.734Z,833.33
2017-01-22T05:31:18.762Z,833.32
2017-01-22T05:31:48.788Z,833.23
2017-01-22T05:32:18.813Z,833.26
2017-01-22T05:32:48.841Z,833.23
2017-01-22T05:33:18.868Z,833.2
2017-01-22T05:33:48.893Z,833.2
2017-01-22T05:34:18.921Z,833.16
2017-01-22T05:34:48.949Z,833.16
2017-01-22T05:35:18.977Z,833.19
2017-01-22T05:35:49.002Z,833.09
2017-01-22T05:36:19.030Z,833.11
2017-01-22T05:36:49.056Z,833.15
2017-01-22T05:37:19.082Z,833.13
2017-01-22T05:37:49.144Z,833.1
2017-01-22T05:38:19.140Z,833.11
2017-01-22T05:38:49.164Z,833.1
2017-01-22T05:39:19.189Z,833.12
2017-01-22T05:39:49.225Z,833.15
2017-01-22T05:40:19.246Z,833.15
2017-01-22T05:40:49.270Z,833.14
2017-01-22T05:41:19.319Z,833.14
2017-01-22T05:41:49.324Z,833.17
2017-01-22T05:42:19.351Z,833.14
2017-01-22T05:42:49.382Z,833.17
2017-01-22T05:43:19.402Z,833.15
2017-01-22T05:43:49.430Z,833.07
2017-01-22T05:44:19.456Z,833.05
2017-01-22T05:44:49.483Z,833.05
2017-01-22T05:45:19.511Z,833.02
2017-01-22T05:45:49.537Z,833.03
2017-01-22T05:46:19.574Z,833.06
2017-01-22T05:46:49.589Z,833.09
2017-01-22T05:47:19.617Z,833.07
2017-01-22T05:47:49.644Z,833.05
2017-01-22T05:48:19.669Z,833.07
2017-01-22T05:48:49.698Z,833.09
2017-01-22T05:49:19.723Z,833.11
2017-01-22T05:49:49.751Z,833.13
2017-01-22T05:50:19.777Z,833.15
2017-01-22T05:50:49.802Z,833.16
2017-01-22T05:51:19.831Z,833.21
2017-01-22T05:51:49.855Z,833.26
2017-01-22T05:52:19.884Z,833.33
2017-01-22T05:52:49.911Z,833.36
2017-01-22T05:53:19.938Z,833.43
2017-01-22T05:53:50.013Z,833.48
2017-01-22T05:54:19.990Z,833.53
2017-01-22T05:54:50.016Z,833.68
2017-01-22T05:55:20.043Z,833.71
2017-01-22T05:55:50.072Z,833.77
2017-01-22T05:56:20.098Z,833.87
2017-01-22T05:56:50.126Z,833.91
2017-01-22T05:57:20.149Z,834.06
2017-01-22T05:57:50.178Z,834.08
2017-01-22T05:58:20.203Z,834.12
2017-01-22T05:58:50.232Z,834.22
2017-01-22T05:59:20.256Z,834.24
2017-01-22T05:59:50.287Z,834.3
2017-01-22T06:00:20.313Z,834.38
2017-01-22T06:00:50.342Z,834.4
2017-01-22T06:01:20.369Z,834.43
2017-01-22T06:01:50.391Z,834.47
2017-01-22T06:02:20.447Z,834.5
2017-01-22T06:02:50.447Z,834.45
2017-01-22T06:03:20.473Z,834.5
2017-01-22T06:03:50.499Z,834.53
2017-01-22T06:04:20.529Z,834.51
2017-01-22T06:04:50.554Z,834.51
2017-01-22T06:05:20.582Z,834.5
2017-01-22T06:05:50.609Z,834.5
2017-01-22T06:06:20.634Z,834.48
2017-01-22T06:06:50.662Z,834.54
2017-01-22T06:07:20.692Z,834.53
2017-01-22T06:07:50.722Z,834.47
2017-01-22T06:08:20.742Z,834.45
2017-01-22T06:08:50.770Z,834.41
2017-01-22T06:09:20.796Z,834.42
2017-01-22T06:09:50.825Z,834.4
2017-01-22T06:10:20.851Z,834.33
2017-01-22T06:10:50.880Z,834.36
2017-01-22T06:11:20.903Z,834.38
2017-01-22T06:11:50.932Z,834.36
2017-01-22T06:12:20.961Z,834.35
2017-01-22T06:12:50.985Z,834.31
2017-01-22T06:13:21.011Z,834.26
2017-01-22T06:13:51.038Z,834.19
2017-01-22T06:14:21.066Z,834.16
2017-01-22T06:14:51.094Z,834.06
2017-01-22T06:15:21.123Z,834.04
2017-01-22T06:15:51.146Z,833.98